sensor_id;sensor_type;location;lat;lon;timestamp;temperature;humidity
5200;DHT22;2619;47.868;11.892;2022-09-16T00:00:08;12.80;99.90
5200;DHT22;2619;47.868;11.892;2022-09-16T00:02:34;12.90;99.90
5200;DHT22;2619;47.868;11.892;2022-09-16T00:05:00;12.90;99.90
5200;DHT22;2619;47.868;11.892;2022-09-16T00:07:26;12.90;99.90
5200;DHT22;2619;47.868;11.892;2022-09-16T00:09:53;12.90;99.90
5200;DHT22;2619;47.868;11.892;2022-09-16T00:12:18;12.90;99.90
5200;DHT22;2619;47.868;11.892;2022-09-16T00:14:44;12.90;99.90
5200;DHT22;2619;47.868;11.892;2022-09-16T00:17:10;13.00;99.90
5200;DHT22;2619;47.868;11.892;2022-09-16T00:19:35;13.00;99.90
5200;DHT22;2619;47.868;11.892;2022-09-16T00:22:01;13.00;99.90
5200;DHT22;2619;47.868;11.892;2022-09-16T00:24:27;13.10;99.90
5200;DHT22;2619;47.868;11.892;2022-09-16T00:26:52;13.10;99.90
5200;DHT22;2619;47.868;11.892;2022-09-16T00:29:18;13.10;99.90
5200;DHT22;2619;47.868;11.892;2022-09-16T00:31:43;13.10;99.90
5200;DHT22;2619;47.868;11.892;2022-09-16T00:34:09;13.10;99.90
5200;DHT22;2619;47.868;11.892;2022-09-16T00:36:34;13.10;99.90
5200;DHT22;2619;47.868;11.892;2022-09-16T00:39:00;13.20;99.90
5200;DHT22;2619;47.868;11.892;2022-09-16T00:41:28;13.20;99.90
5200;DHT22;2619;47.868;11.892;2022-09-16T00:44:03;13.20;99.90
5200;DHT22;2619;47.868;11.892;2022-09-16T00:46:38;13.20;99.90
5200;DHT22;2619;47.868;11.892;2022-09-16T00:49:16;13.20;99.90
5200;DHT22;2619;47.868;11.892;2022-09-16T00:51:44;13.30;99.90
5200;DHT22;2619;47.868;11.892;2022-09-16T00:54:12;13.30;99.90
5200;DHT22;2619;47.868;11.892;2022-09-16T00:56:40;13.20;99.90
5200;DHT22;2619;47.868;11.892;2022-09-16T00:59:26;13.20;99.90
5200;DHT22;2619;47.868;11.892;2022-09-16T01:01:54;13.10;99.90
5200;DHT22;2619;47.868;11.892;2022-09-16T01:04:28;13.20;99.90
5200;DHT22;2619;47.868;11.892;2022-09-16T01:06:55;13.20;99.90
5200;DHT22;2619;47.868;11.892;2022-09-16T01:09:23;13.20;99.90
5200;DHT22;2619;47.868;11.892;2022-09-16T01:11:50;13.20;99.90
5200;DHT22;2619;47.868;11.892;2022-09-16T01:14:16;13.20;99.90
5200;DHT22;2619;47.868;11.892;2022-09-16T01:17:20;13.20;99.90
5200;DHT22;2619;47.868;11.892;2022-09-16T01:26:01;13.20;99.90
5200;DHT22;2619;47.868;11.892;2022-09-16T01:34:04;13.00;99.90
5200;DHT22;2619;47.868;11.892;2022-09-16T01:39:46;12.70;99.90
5200;DHT22;2619;47.868;11.892;2022-09-16T01:42:37;12.70;99.90
5200;DHT22;2619;47.868;11.892;2022-09-16T01:45:53;12.60;99.90
5200;DHT22;2619;47.868;11.892;2022-09-16T01:48:19;12.70;99.90
5200;DHT22;2619;47.868;11.892;2022-09-16T01:51:11;12.70;99.90
5200;DHT22;2619;47.868;11.892;2022-09-16T01:53:51;12.80;99.90
5200;DHT22;2619;47.868;11.892;2022-09-16T01:56:41;12.80;99.90
5200;DHT22;2619;47.868;11.892;2022-09-16T01:59:21;12.80;99.90
5200;DHT22;2619;47.868;11.892;2022-09-16T02:01:53;12.90;99.90
5200;DHT22;2619;47.868;11.892;2022-09-16T02:04:50;12.90;99.90
5200;DHT22;2619;47.868;11.892;2022-09-16T02:07:21;13.00;99.90
5200;DHT22;2619;47.868;11.892;2022-09-16T02:09:51;13.00;99.90
5200;DHT22;2619;47.868;11.892;2022-09-16T02:12:24;12.90;99.90
5200;DHT22;2619;47.868;11.892;2022-09-16T02:14:54;12.80;99.90
5200;DHT22;2619;47.868;11.892;2022-09-16T02:17:23;12.80;99.90
5200;DHT22;2619;47.868;11.892;2022-09-16T02:20:02;12.80;99.90
5200;DHT22;2619;47.868;11.892;2022-09-16T02:22:43;12.90;99.90
5200;DHT22;2619;47.868;11.892;2022-09-16T02:25:10;12.90;99.90
5200;DHT22;2619;47.868;11.892;2022-09-16T02:27:38;12.90;99.90
5200;DHT22;2619;47.868;11.892;2022-09-16T02:30:08;12.90;99.90
5200;DHT22;2619;47.868;11.892;2022-09-16T02:32:38;12.90;99.90
5200;DHT22;2619;47.868;11.892;2022-09-16T02:35:09;12.90;99.90
5200;DHT22;2619;47.868;11.892;2022-09-16T02:40:19;12.90;99.90
5200;DHT22;2619;47.868;11.892;2022-09-16T02:42:46;12.90;99.90
5200;DHT22;2619;47.868;11.892;2022-09-16T02:45:13;12.80;99.90
5200;DHT22;2619;47.868;11.892;2022-09-16T02:47:53;12.80;99.90
5200;DHT22;2619;47.868;11.892;2022-09-16T02:50:33;12.80;99.90
5200;DHT22;2619;47.868;11.892;2022-09-16T02:53:08;12.80;99.90
5200;DHT22;2619;47.868;11.892;2022-09-16T02:56:01;12.80;99.90
5200;DHT22;2619;47.868;11.892;2022-09-16T02:58:30;12.80;99.90
5200;DHT22;2619;47.868;11.892;2022-09-16T03:00:56;12.90;99.90
5200;DHT22;2619;47.868;11.892;2022-09-16T03:03:23;12.90;99.90
5200;DHT22;2619;47.868;11.892;2022-09-16T03:06:17;12.90;99.90
5200;DHT22;2619;47.868;11.892;2022-09-16T03:08:43;12.90;99.90
5200;DHT22;2619;47.868;11.892;2022-09-16T03:11:19;12.90;99.90
5200;DHT22;2619;47.868;11.892;2022-09-16T03:14:07;13.00;99.90
5200;DHT22;2619;47.868;11.892;2022-09-16T03:22:22;13.00;99.90
5200;DHT22;2619;47.868;11.892;2022-09-16T03:25:02;13.10;99.90
5200;DHT22;2619;47.868;11.892;2022-09-16T03:27:41;13.10;99.90
5200;DHT22;2619;47.868;11.892;2022-09-16T03:30:09;13.10;99.90
5200;DHT22;2619;47.868;11.892;2022-09-16T03:32:59;13.00;99.90
5200;DHT22;2619;47.868;11.892;2022-09-16T03:35:32;13.00;99.90
5200;DHT22;2619;47.868;11.892;2022-09-16T03:38:00;13.00;99.90
5200;DHT22;2619;47.868;11.892;2022-09-16T03:40:27;13.00;99.90
5200;DHT22;2619;47.868;11.892;2022-09-16T03:42:54;13.00;99.90
5200;DHT22;2619;47.868;11.892;2022-09-16T03:45:22;13.00;99.90
5200;DHT22;2619;47.868;11.892;2022-09-16T03:47:50;13.00;99.90
5200;DHT22;2619;47.868;11.892;2022-09-16T03:50:17;12.90;99.90
5200;DHT22;2619;47.868;11.892;2022-09-16T03:52:44;12.90;99.90
5200;DHT22;2619;47.868;11.892;2022-09-16T03:55:10;12.90;99.90
5200;DHT22;2619;47.868;11.892;2022-09-16T03:57:37;12.90;99.90
5200;DHT22;2619;47.868;11.892;2022-09-16T04:00:04;12.90;99.90
5200;DHT22;2619;47.868;11.892;2022-09-16T04:02:31;12.90;99.90
5200;DHT22;2619;47.868;11.892;2022-09-16T04:04:56;12.80;99.90
5200;DHT22;2619;47.868;11.892;2022-09-16T04:07:22;12.70;99.90
5200;DHT22;2619;47.868;11.892;2022-09-16T04:09:47;12.60;99.90
5200;DHT22;2619;47.868;11.892;2022-09-16T04:12:13;12.50;99.90
5200;DHT22;2619;47.868;11.892;2022-09-16T04:14:39;12.50;99.90
5200;DHT22;2619;47.868;11.892;2022-09-16T04:17:05;12.50;99.90
5200;DHT22;2619;47.868;11.892;2022-09-16T04:19:31;12.50;99.90
5200;DHT22;2619;47.868;11.892;2022-09-16T04:21:57;12.50;99.90
5200;DHT22;2619;47.868;11.892;2022-09-16T04:24:23;12.50;99.90
5200;DHT22;2619;47.868;11.892;2022-09-16T04:26:49;12.60;99.90
5200;DHT22;2619;47.868;11.892;2022-09-16T04:29:15;12.60;99.90
5200;DHT22;2619;47.868;11.892;2022-09-16T04:31:41;12.70;99.90
5200;DHT22;2619;47.868;11.892;2022-09-16T04:34:08;12.70;99.90
5200;DHT22;2619;47.868;11.892;2022-09-16T04:36:36;12.70;99.90
5200;DHT22;2619;47.868;11.892;2022-09-16T04:39:03;12.80;99.90
5200;DHT22;2619;47.868;11.892;2022-09-16T04:41:28;12.80;99.90
5200;DHT22;2619;47.868;11.892;2022-09-16T04:43:55;12.90;99.90
5200;DHT22;2619;47.868;11.892;2022-09-16T04:46:22;12.90;99.90
5200;DHT22;2619;47.868;11.892;2022-09-16T04:48:49;13.00;99.90
5200;DHT22;2619;47.868;11.892;2022-09-16T04:51:15;12.90;99.90
5200;DHT22;2619;47.868;11.892;2022-09-16T04:53:42;13.00;99.90
5200;DHT22;2619;47.868;11.892;2022-09-16T04:56:21;13.00;99.90
5200;DHT22;2619;47.868;11.892;2022-09-16T04:58:53;12.90;99.90
5200;DHT22;2619;47.868;11.892;2022-09-16T05:01:23;13.00;99.90
5200;DHT22;2619;47.868;11.892;2022-09-16T05:03:51;13.00;99.90
5200;DHT22;2619;47.868;11.892;2022-09-16T05:06:20;13.10;99.90
5200;DHT22;2619;47.868;11.892;2022-09-16T05:08:46;13.10;99.90
5200;DHT22;2619;47.868;11.892;2022-09-16T05:11:14;13.10;99.90
5200;DHT22;2619;47.868;11.892;2022-09-16T05:13:40;13.10;99.90
5200;DHT22;2619;47.868;11.892;2022-09-16T05:16:08;13.10;99.90
5200;DHT22;2619;47.868;11.892;2022-09-16T05:18:35;13.10;99.90
5200;DHT22;2619;47.868;11.892;2022-09-16T05:21:04;13.10;99.90
5200;DHT22;2619;47.868;11.892;2022-09-16T05:23:30;13.20;99.90
5200;DHT22;2619;47.868;11.892;2022-09-16T05:26:04;13.20;99.90
5200;DHT22;2619;47.868;11.892;2022-09-16T05:28:31;13.20;99.90
5200;DHT22;2619;47.868;11.892;2022-09-16T05:31:07;13.20;99.90
5200;DHT22;2619;47.868;11.892;2022-09-16T05:33:33;13.20;99.90
5200;DHT22;2619;47.868;11.892;2022-09-16T05:36:07;13.20;99.90
5200;DHT22;2619;47.868;11.892;2022-09-16T05:38:33;13.30;99.90
5200;DHT22;2619;47.868;11.892;2022-09-16T05:41:02;13.30;99.90
5200;DHT22;2619;47.868;11.892;2022-09-16T05:43:28;13.30;99.90
5200;DHT22;2619;47.868;11.892;2022-09-16T05:45:55;13.30;99.90
5200;DHT22;2619;47.868;11.892;2022-09-16T05:48:22;13.40;99.90
5200;DHT22;2619;47.868;11.892;2022-09-16T05:51:02;13.40;99.90
5200;DHT22;2619;47.868;11.892;2022-09-16T05:53:30;13.40;99.90
5200;DHT22;2619;47.868;11.892;2022-09-16T05:56:00;13.40;99.90
5200;DHT22;2619;47.868;11.892;2022-09-16T05:58:27;13.50;99.90
5200;DHT22;2619;47.868;11.892;2022-09-16T06:03:34;13.50;99.90
5200;DHT22;2619;47.868;11.892;2022-09-16T06:06:01;13.60;99.90
5200;DHT22;2619;47.868;11.892;2022-09-16T06:08:28;13.50;99.90
5200;DHT22;2619;47.868;11.892;2022-09-16T06:10:54;13.50;99.90
5200;DHT22;2619;47.868;11.892;2022-09-16T06:13:20;13.50;99.90
5200;DHT22;2619;47.868;11.892;2022-09-16T06:15:50;13.50;99.90
5200;DHT22;2619;47.868;11.892;2022-09-16T06:18:17;13.50;99.90
5200;DHT22;2619;47.868;11.892;2022-09-16T06:20:43;13.50;99.90
5200;DHT22;2619;47.868;11.892;2022-09-16T06:23:09;13.50;99.90
5200;DHT22;2619;47.868;11.892;2022-09-16T06:25:35;13.60;99.90
5200;DHT22;2619;47.868;11.892;2022-09-16T06:28:01;13.70;99.90
5200;DHT22;2619;47.868;11.892;2022-09-16T06:30:27;13.90;99.90
5200;DHT22;2619;47.868;11.892;2022-09-16T06:32:52;14.10;99.90
5200;DHT22;2619;47.868;11.892;2022-09-16T06:35:18;14.30;99.90
5200;DHT22;2619;47.868;11.892;2022-09-16T06:37:44;14.50;99.90
5200;DHT22;2619;47.868;11.892;2022-09-16T06:40:09;14.70;99.90
5200;DHT22;2619;47.868;11.892;2022-09-16T06:42:35;14.80;99.90
5200;DHT22;2619;47.868;11.892;2022-09-16T06:45:01;15.00;99.90
5200;DHT22;2619;47.868;11.892;2022-09-16T06:47:29;15.00;99.90
5200;DHT22;2619;47.868;11.892;2022-09-16T06:50:01;14.90;99.90
5200;DHT22;2619;47.868;11.892;2022-09-16T06:52:26;14.80;99.90
5200;DHT22;2619;47.868;11.892;2022-09-16T06:54:53;14.90;99.90
5200;DHT22;2619;47.868;11.892;2022-09-16T06:57:18;14.90;99.90
5200;DHT22;2619;47.868;11.892;2022-09-16T06:59:48;15.00;99.90
5200;DHT22;2619;47.868;11.892;2022-09-16T07:02:13;14.90;99.90
5200;DHT22;2619;47.868;11.892;2022-09-16T07:04:39;14.90;99.90
5200;DHT22;2619;47.868;11.892;2022-09-16T07:07:05;15.10;99.90
5200;DHT22;2619;47.868;11.892;2022-09-16T07:09:31;15.10;99.90
5200;DHT22;2619;47.868;11.892;2022-09-16T07:11:57;15.10;99.90
5200;DHT22;2619;47.868;11.892;2022-09-16T07:14:24;15.20;99.90
5200;DHT22;2619;47.868;11.892;2022-09-16T07:16:50;15.10;99.90
5200;DHT22;2619;47.868;11.892;2022-09-16T07:19:16;15.10;99.90
5200;DHT22;2619;47.868;11.892;2022-09-16T07:21:42;15.20;99.90
5200;DHT22;2619;47.868;11.892;2022-09-16T07:24:10;15.40;99.90
5200;DHT22;2619;47.868;11.892;2022-09-16T07:26:35;15.60;99.90
5200;DHT22;2619;47.868;11.892;2022-09-16T07:29:03;15.70;99.90
5200;DHT22;2619;47.868;11.892;2022-09-16T07:31:32;15.80;99.90
5200;DHT22;2619;47.868;11.892;2022-09-16T07:33:59;15.80;99.90
5200;DHT22;2619;47.868;11.892;2022-09-16T07:36:36;16.00;99.90
5200;DHT22;2619;47.868;11.892;2022-09-16T07:39:03;16.20;99.90
5200;DHT22;2619;47.868;11.892;2022-09-16T07:41:32;16.40;99.90
5200;DHT22;2619;47.868;11.892;2022-09-16T07:43:59;16.80;99.90
5200;DHT22;2619;47.868;11.892;2022-09-16T07:46:26;17.10;99.90
5200;DHT22;2619;47.868;11.892;2022-09-16T07:48:53;17.30;99.90
5200;DHT22;2619;47.868;11.892;2022-09-16T07:51:21;17.40;99.90
5200;DHT22;2619;47.868;11.892;2022-09-16T07:53:52;17.40;99.90
5200;DHT22;2619;47.868;11.892;2022-09-16T07:56:19;17.70;99.90
5200;DHT22;2619;47.868;11.892;2022-09-16T07:58:46;17.90;99.90
5200;DHT22;2619;47.868;11.892;2022-09-16T08:01:13;18.00;99.90
5200;DHT22;2619;47.868;11.892;2022-09-16T08:03:40;17.90;99.90
5200;DHT22;2619;47.868;11.892;2022-09-16T08:06:08;17.80;99.90
5200;DHT22;2619;47.868;11.892;2022-09-16T08:08:35;17.90;99.90
5200;DHT22;2619;47.868;11.892;2022-09-16T08:11:00;17.80;99.90
5200;DHT22;2619;47.868;11.892;2022-09-16T08:13:28;18.00;99.90
5200;DHT22;2619;47.868;11.892;2022-09-16T08:15:54;18.00;99.90
5200;DHT22;2619;47.868;11.892;2022-09-16T08:18:20;18.00;99.90
5200;DHT22;2619;47.868;11.892;2022-09-16T08:20:46;18.10;99.90
5200;DHT22;2619;47.868;11.892;2022-09-16T08:23:11;18.20;99.90
5200;DHT22;2619;47.868;11.892;2022-09-16T08:25:39;18.30;99.90
5200;DHT22;2619;47.868;11.892;2022-09-16T08:28:04;18.30;99.90
5200;DHT22;2619;47.868;11.892;2022-09-16T08:30:30;18.30;99.90
5200;DHT22;2619;47.868;11.892;2022-09-16T08:32:57;18.40;99.90
5200;DHT22;2619;47.868;11.892;2022-09-16T08:35:23;18.60;99.90
5200;DHT22;2619;47.868;11.892;2022-09-16T08:37:50;18.30;99.90
5200;DHT22;2619;47.868;11.892;2022-09-16T08:40:19;18.30;99.90
5200;DHT22;2619;47.868;11.892;2022-09-16T08:43:21;18.50;99.90
5200;DHT22;2619;47.868;11.892;2022-09-16T08:45:56;18.70;99.90
5200;DHT22;2619;47.868;11.892;2022-09-16T08:51:19;18.90;99.90
5200;DHT22;2619;47.868;11.892;2022-09-16T08:54:00;19.20;99.90
5200;DHT22;2619;47.868;11.892;2022-09-16T08:56:30;19.20;99.90
5200;DHT22;2619;47.868;11.892;2022-09-16T08:59:00;19.30;99.90
5200;DHT22;2619;47.868;11.892;2022-09-16T09:01:35;19.50;99.90
5200;DHT22;2619;47.868;11.892;2022-09-16T09:04:03;19.50;99.90
5200;DHT22;2619;47.868;11.892;2022-09-16T09:06:56;19.60;99.90
5200;DHT22;2619;47.868;11.892;2022-09-16T09:12:09;19.10;99.90
5200;DHT22;2619;47.868;11.892;2022-09-16T09:14:56;19.20;99.90
5200;DHT22;2619;47.868;11.892;2022-09-16T09:17:41;19.40;99.90
5200;DHT22;2619;47.868;11.892;2022-09-16T09:23:13;19.30;99.90
5200;DHT22;2619;47.868;11.892;2022-09-16T09:28:50;19.20;99.90
5200;DHT22;2619;47.868;11.892;2022-09-16T09:31:54;18.80;99.90
5200;DHT22;2619;47.868;11.892;2022-09-16T09:34:35;18.50;99.90
5200;DHT22;2619;47.868;11.892;2022-09-16T09:40:09;17.90;99.90
5200;DHT22;2619;47.868;11.892;2022-09-16T09:42:49;17.50;99.90
5200;DHT22;2619;47.868;11.892;2022-09-16T09:45:29;17.30;99.90
5200;DHT22;2619;47.868;11.892;2022-09-16T09:48:03;17.20;99.90
5200;DHT22;2619;47.868;11.892;2022-09-16T09:50:43;17.10;99.90
5200;DHT22;2619;47.868;11.892;2022-09-16T09:53:25;17.10;99.90
5200;DHT22;2619;47.868;11.892;2022-09-16T09:56:14;17.00;99.90
5200;DHT22;2619;47.868;11.892;2022-09-16T09:58:47;16.90;99.90
5200;DHT22;2619;47.868;11.892;2022-09-16T10:01:15;16.80;99.90
5200;DHT22;2619;47.868;11.892;2022-09-16T10:03:41;16.80;99.90
5200;DHT22;2619;47.868;11.892;2022-09-16T10:06:09;16.70;99.90
5200;DHT22;2619;47.868;11.892;2022-09-16T10:08:42;16.60;99.90
5200;DHT22;2619;47.868;11.892;2022-09-16T10:11:19;16.50;99.90
5200;DHT22;2619;47.868;11.892;2022-09-16T10:13:53;16.50;99.90
5200;DHT22;2619;47.868;11.892;2022-09-16T10:16:35;16.40;99.90
5200;DHT22;2619;47.868;11.892;2022-09-16T10:19:22;16.30;99.90
5200;DHT22;2619;47.868;11.892;2022-09-16T10:21:49;16.40;99.90
5200;DHT22;2619;47.868;11.892;2022-09-16T10:26:51;16.60;99.90
5200;DHT22;2619;47.868;11.892;2022-09-16T10:29:17;16.90;99.90
5200;DHT22;2619;47.868;11.892;2022-09-16T10:31:46;17.30;99.90
5200;DHT22;2619;47.868;11.892;2022-09-16T10:34:19;17.50;99.90
5200;DHT22;2619;47.868;11.892;2022-09-16T10:36:58;17.50;99.90
5200;DHT22;2619;47.868;11.892;2022-09-16T10:39:26;17.60;99.90
5200;DHT22;2619;47.868;11.892;2022-09-16T10:41:52;17.70;99.90
5200;DHT22;2619;47.868;11.892;2022-09-16T10:44:27;18.00;99.90
5200;DHT22;2619;47.868;11.892;2022-09-16T10:47:03;18.30;99.90
5200;DHT22;2619;47.868;11.892;2022-09-16T10:49:42;18.50;99.90
5200;DHT22;2619;47.868;11.892;2022-09-16T10:52:15;18.60;99.90
5200;DHT22;2619;47.868;11.892;2022-09-16T10:54:41;18.70;99.90
5200;DHT22;2619;47.868;11.892;2022-09-16T10:57:29;18.50;99.90
5200;DHT22;2619;47.868;11.892;2022-09-16T11:00:16;18.20;99.90
5200;DHT22;2619;47.868;11.892;2022-09-16T11:03:09;18.20;99.90
5200;DHT22;2619;47.868;11.892;2022-09-16T11:14:18;17.50;99.90
5200;DHT22;2619;47.868;11.892;2022-09-16T11:19:46;17.80;99.90
5200;DHT22;2619;47.868;11.892;2022-09-16T11:22:35;17.80;99.90
5200;DHT22;2619;47.868;11.892;2022-09-16T11:30:22;18.40;99.90
5200;DHT22;2619;47.868;11.892;2022-09-16T11:41:20;19.40;99.90
5200;DHT22;2619;47.868;11.892;2022-09-16T11:44:07;19.60;99.90
5200;DHT22;2619;47.868;11.892;2022-09-16T11:46:47;19.90;99.90
5200;DHT22;2619;47.868;11.892;2022-09-16T11:52:41;19.70;99.90
5200;DHT22;2619;47.868;11.892;2022-09-16T11:58:37;19.50;99.90
5200;DHT22;2619;47.868;11.892;2022-09-16T12:01:16;19.00;99.90
5200;DHT22;2619;47.868;11.892;2022-09-16T12:03:50;19.00;99.90
5200;DHT22;2619;47.868;11.892;2022-09-16T12:06:21;19.40;99.90
5200;DHT22;2619;47.868;11.892;2022-09-16T12:08:56;19.80;99.90
5200;DHT22;2619;47.868;11.892;2022-09-16T12:11:36;20.20;99.90
5200;DHT22;2619;47.868;11.892;2022-09-16T12:14:17;20.30;99.90
5200;DHT22;2619;47.868;11.892;2022-09-16T12:16:50;20.20;99.90
5200;DHT22;2619;47.868;11.892;2022-09-16T12:19:47;19.90;99.90
5200;DHT22;2619;47.868;11.892;2022-09-16T12:22:44;20.20;99.90
5200;DHT22;2619;47.868;11.892;2022-09-16T12:25:24;20.70;99.90
5200;DHT22;2619;47.868;11.892;2022-09-16T12:30:26;21.40;99.90
5200;DHT22;2619;47.868;11.892;2022-09-16T12:33:01;20.20;99.90
5200;DHT22;2619;47.868;11.892;2022-09-16T12:38:15;16.70;99.90
5200;DHT22;2619;47.868;11.892;2022-09-16T12:57:44;13.90;99.90
5200;DHT22;2619;47.868;11.892;2022-09-16T13:00:23;13.80;99.90
5200;DHT22;2619;47.868;11.892;2022-09-16T13:02:58;13.80;99.90
5200;DHT22;2619;47.868;11.892;2022-09-16T13:05:30;13.90;99.90
5200;DHT22;2619;47.868;11.892;2022-09-16T13:08:05;14.00;99.90
5200;DHT22;2619;47.868;11.892;2022-09-16T13:10:35;13.90;99.90
5200;DHT22;2619;47.868;11.892;2022-09-16T13:13:03;13.80;99.90
5200;DHT22;2619;47.868;11.892;2022-09-16T13:15:33;13.90;99.90
5200;DHT22;2619;47.868;11.892;2022-09-16T13:20:57;13.50;99.90
5200;DHT22;2619;47.868;11.892;2022-09-16T13:23:27;13.20;99.90
5200;DHT22;2619;47.868;11.892;2022-09-16T13:26:05;13.00;99.90
5200;DHT22;2619;47.868;11.892;2022-09-16T13:28:40;12.80;99.90
5200;DHT22;2619;47.868;11.892;2022-09-16T13:31:15;12.60;99.90
5200;DHT22;2619;47.868;11.892;2022-09-16T13:34:01;12.50;99.90
5200;DHT22;2619;47.868;11.892;2022-09-16T13:36:28;12.50;99.90
5200;DHT22;2619;47.868;11.892;2022-09-16T13:39:00;12.60;99.90
5200;DHT22;2619;47.868;11.892;2022-09-16T13:41:36;12.50;99.90
5200;DHT22;2619;47.868;11.892;2022-09-16T13:44:38;12.50;99.90
5200;DHT22;2619;47.868;11.892;2022-09-16T13:52:11;12.50;99.90
5200;DHT22;2619;47.868;11.892;2022-09-16T13:54:46;12.60;99.90
5200;DHT22;2619;47.868;11.892;2022-09-16T13:57:39;12.60;99.90
5200;DHT22;2619;47.868;11.892;2022-09-16T14:13:39;12.90;99.90
5200;DHT22;2619;47.868;11.892;2022-09-16T14:16:17;13.00;99.90
5200;DHT22;2619;47.868;11.892;2022-09-16T14:19:02;13.10;99.90
5200;DHT22;2619;47.868;11.892;2022-09-16T14:21:29;13.20;99.90
5200;DHT22;2619;47.868;11.892;2022-09-16T14:24:06;13.20;99.90
5200;DHT22;2619;47.868;11.892;2022-09-16T14:26:32;13.00;99.90
5200;DHT22;2619;47.868;11.892;2022-09-16T14:29:03;12.80;99.90
5200;DHT22;2619;47.868;11.892;2022-09-16T14:31:30;12.60;99.90
5200;DHT22;2619;47.868;11.892;2022-09-16T14:33:59;12.60;99.90
5200;DHT22;2619;47.868;11.892;2022-09-16T14:36:36;12.50;99.90
5200;DHT22;2619;47.868;11.892;2022-09-16T14:39:23;12.50;99.90
5200;DHT22;2619;47.868;11.892;2022-09-16T14:41:57;12.50;99.90
5200;DHT22;2619;47.868;11.892;2022-09-16T14:44:46;12.60;99.90
5200;DHT22;2619;47.868;11.892;2022-09-16T14:47:29;12.60;99.90
5200;DHT22;2619;47.868;11.892;2022-09-16T14:50:02;12.60;99.90
5200;DHT22;2619;47.868;11.892;2022-09-16T14:52:29;12.50;99.90
5200;DHT22;2619;47.868;11.892;2022-09-16T14:54:56;12.40;99.90
5200;DHT22;2619;47.868;11.892;2022-09-16T14:57:23;12.30;99.90
5200;DHT22;2619;47.868;11.892;2022-09-16T14:59:52;12.30;99.90
5200;DHT22;2619;47.868;11.892;2022-09-16T15:02:29;12.20;99.90
5200;DHT22;2619;47.868;11.892;2022-09-16T15:07:43;12.40;99.90
5200;DHT22;2619;47.868;11.892;2022-09-16T15:10:22;12.40;99.90
5200;DHT22;2619;47.868;11.892;2022-09-16T15:13:11;12.40;99.90
5200;DHT22;2619;47.868;11.892;2022-09-16T15:15:36;12.50;99.90
5200;DHT22;2619;47.868;11.892;2022-09-16T15:18:25;12.60;99.90
5200;DHT22;2619;47.868;11.892;2022-09-16T15:21:17;12.60;99.90
5200;DHT22;2619;47.868;11.892;2022-09-16T15:23:49;12.70;99.90
5200;DHT22;2619;47.868;11.892;2022-09-16T15:26:16;12.70;99.90
5200;DHT22;2619;47.868;11.892;2022-09-16T15:28:55;12.70;99.90
5200;DHT22;2619;47.868;11.892;2022-09-16T15:31:29;12.60;99.90
5200;DHT22;2619;47.868;11.892;2022-09-16T15:33:57;12.60;99.90
5200;DHT22;2619;47.868;11.892;2022-09-16T15:39:02;12.40;99.90
5200;DHT22;2619;47.868;11.892;2022-09-16T15:41:28;12.40;99.90
5200;DHT22;2619;47.868;11.892;2022-09-16T15:43:57;12.30;99.90
5200;DHT22;2619;47.868;11.892;2022-09-16T15:46:23;12.40;99.90
5200;DHT22;2619;47.868;11.892;2022-09-16T15:48:58;12.50;99.90
5200;DHT22;2619;47.868;11.892;2022-09-16T15:51:45;12.50;99.90
5200;DHT22;2619;47.868;11.892;2022-09-16T15:54:28;12.50;99.90
5200;DHT22;2619;47.868;11.892;2022-09-16T15:57:26;12.30;99.90
5200;DHT22;2619;47.868;11.892;2022-09-16T16:02:32;12.20;99.90
5200;DHT22;2619;47.868;11.892;2022-09-16T16:05:17;12.20;99.90
5200;DHT22;2619;47.868;11.892;2022-09-16T16:10:27;12.10;99.90
5200;DHT22;2619;47.868;11.892;2022-09-16T16:12:56;12.10;99.90
5200;DHT22;2619;47.868;11.892;2022-09-16T16:15:27;12.10;99.90
5200;DHT22;2619;47.868;11.892;2022-09-16T16:17:57;12.00;99.90
5200;DHT22;2619;47.868;11.892;2022-09-16T16:20:24;12.00;99.90
5200;DHT22;2619;47.868;11.892;2022-09-16T16:22:50;12.10;99.90
5200;DHT22;2619;47.868;11.892;2022-09-16T16:25:15;12.10;99.90
5200;DHT22;2619;47.868;11.892;2022-09-16T16:27:41;12.10;99.90
5200;DHT22;2619;47.868;11.892;2022-09-16T16:30:07;12.10;99.90
5200;DHT22;2619;47.868;11.892;2022-09-16T16:32:34;12.20;99.90
5200;DHT22;2619;47.868;11.892;2022-09-16T16:34:59;12.00;99.90
5200;DHT22;2619;47.868;11.892;2022-09-16T16:37:26;12.10;99.90
5200;DHT22;2619;47.868;11.892;2022-09-16T16:39:52;12.00;99.90
5200;DHT22;2619;47.868;11.892;2022-09-16T16:42:18;12.00;99.90
5200;DHT22;2619;47.868;11.892;2022-09-16T16:44:45;12.00;99.90
5200;DHT22;2619;47.868;11.892;2022-09-16T16:47:11;11.90;99.90
5200;DHT22;2619;47.868;11.892;2022-09-16T16:49:37;11.80;99.90
5200;DHT22;2619;47.868;11.892;2022-09-16T16:52:05;11.80;99.90
5200;DHT22;2619;47.868;11.892;2022-09-16T16:54:31;11.70;99.90
5200;DHT22;2619;47.868;11.892;2022-09-16T16:56:57;11.60;99.90
5200;DHT22;2619;47.868;11.892;2022-09-16T16:59:24;11.50;99.90
5200;DHT22;2619;47.868;11.892;2022-09-16T17:01:52;11.30;99.90
5200;DHT22;2619;47.868;11.892;2022-09-16T17:04:18;11.30;99.90
5200;DHT22;2619;47.868;11.892;2022-09-16T17:06:44;11.10;99.90
5200;DHT22;2619;47.868;11.892;2022-09-16T17:09:10;11.10;99.90
5200;DHT22;2619;47.868;11.892;2022-09-16T17:11:37;11.00;99.90
5200;DHT22;2619;47.868;11.892;2022-09-16T17:14:13;11.00;99.90
5200;DHT22;2619;47.868;11.892;2022-09-16T17:16:40;11.00;99.90
5200;DHT22;2619;47.868;11.892;2022-09-16T17:19:06;10.90;99.90
5200;DHT22;2619;47.868;11.892;2022-09-16T17:21:33;10.80;99.90
5200;DHT22;2619;47.868;11.892;2022-09-16T17:23:59;10.90;99.90
5200;DHT22;2619;47.868;11.892;2022-09-16T17:26:25;10.90;99.90
5200;DHT22;2619;47.868;11.892;2022-09-16T17:28:53;10.80;99.90
5200;DHT22;2619;47.868;11.892;2022-09-16T17:31:23;10.70;99.90
5200;DHT22;2619;47.868;11.892;2022-09-16T17:33:52;10.80;99.90
5200;DHT22;2619;47.868;11.892;2022-09-16T17:36:19;10.80;99.90
5200;DHT22;2619;47.868;11.892;2022-09-16T17:38:46;10.80;99.90
5200;DHT22;2619;47.868;11.892;2022-09-16T17:41:15;10.80;99.90
5200;DHT22;2619;47.868;11.892;2022-09-16T17:43:42;10.80;99.90
5200;DHT22;2619;47.868;11.892;2022-09-16T17:46:13;10.80;99.90
5200;DHT22;2619;47.868;11.892;2022-09-16T17:48:40;10.80;99.90
5200;DHT22;2619;47.868;11.892;2022-09-16T17:51:06;10.80;99.90
5200;DHT22;2619;47.868;11.892;2022-09-16T17:53:33;10.70;99.90
5200;DHT22;2619;47.868;11.892;2022-09-16T17:56:17;10.70;99.90
5200;DHT22;2619;47.868;11.892;2022-09-16T17:58:45;10.70;99.90
5200;DHT22;2619;47.868;11.892;2022-09-16T18:01:16;10.70;99.90
5200;DHT22;2619;47.868;11.892;2022-09-16T18:03:44;10.70;99.90
5200;DHT22;2619;47.868;11.892;2022-09-16T18:06:18;10.70;99.90
5200;DHT22;2619;47.868;11.892;2022-09-16T18:08:44;10.60;99.90
5200;DHT22;2619;47.868;11.892;2022-09-16T18:11:11;10.70;99.90
5200;DHT22;2619;47.868;11.892;2022-09-16T18:13:37;10.70;99.90
5200;DHT22;2619;47.868;11.892;2022-09-16T18:16:17;10.60;99.90
5200;DHT22;2619;47.868;11.892;2022-09-16T18:18:44;10.60;99.90
5200;DHT22;2619;47.868;11.892;2022-09-16T18:21:12;10.60;99.90